sensor_id;sensor_type;location;lat;lon;timestamp;pressure;altitude;pressure_sealevel;temperature;humidity
48824;BME280;34640;53.590;10.054;2023-12-28T00:01:06;100184.69;;;7.89;100.00
48824;BME280;34640;53.590;10.054;2023-12-28T00:03:41;100181.81;;;8.00;100.00
48824;BME280;34640;53.590;10.054;2023-12-28T00:06:15;100178.16;;;7.96;100.00
48824;BME280;34640;53.590;10.054;2023-12-28T00:08:48;100170.56;;;7.99;100.00
48824;BME280;34640;53.590;10.054;2023-12-28T00:11:35;100170.25;;;8.08;100.00
48824;BME280;34640;53.590;10.054;2023-12-28T00:14:09;100170.75;;;8.02;100.00
48824;BME280;34640;53.590;10.054;2023-12-28T00:16:43;100166.09;;;7.96;100.00
48824;BME280;34640;53.590;10.054;2023-12-28T00:19:17;100167.25;;;8.02;100.00
48824;BME280;34640;53.590;10.054;2023-12-28T00:21:51;100173.91;;;8.11;100.00
48824;BME280;34640;53.590;10.054;2023-12-28T00:24:25;100178.81;;;8.07;100.00
48824;BME280;34640;53.590;10.054;2023-12-28T00:26:59;100196.56;;;8.01;100.00
48824;BME280;34640;53.590;10.054;2023-12-28T00:29:32;100187.41;;;8.06;100.00
48824;BME280;34640;53.590;10.054;2023-12-28T00:32:07;100197.59;;;8.03;100.00
48824;BME280;34640;53.590;10.054;2023-12-28T00:34:41;100193.09;;;8.00;100.00
48824;BME280;34640;53.590;10.054;2023-12-28T00:37:14;100192.53;;;7.91;100.00
48824;BME280;34640;53.590;10.054;2023-12-28T00:39:47;100200.34;;;7.78;100.00
48824;BME280;34640;53.590;10.054;2023-12-28T00:42:23;100202.41;;;7.69;100.00
48824;BME280;34640;53.590;10.054;2023-12-28T00:44:57;100213.59;;;7.54;100.00
48824;BME280;34640;53.590;10.054;2023-12-28T00:47:34;100210.63;;;7.48;100.00
48824;BME280;34640;53.590;10.054;2023-12-28T00:50:07;100215.19;;;7.52;100.00
48824;BME280;34640;53.590;10.054;2023-12-28T00:52:40;100215.28;;;7.54;100.00
48824;BME280;34640;53.590;10.054;2023-12-28T00:55:14;100202.25;;;7.52;100.00
48824;BME280;34640;53.590;10.054;2023-12-28T00:57:47;100212.50;;;7.51;100.00
48824;BME280;34640;53.590;10.054;2023-12-28T01:00:20;100216.09;;;7.53;100.00
48824;BME280;34640;53.590;10.054;2023-12-28T01:02:54;100213.31;;;7.50;100.00
48824;BME280;34640;53.590;10.054;2023-12-28T01:05:28;100203.84;;;7.50;100.00
48824;BME280;34640;53.590;10.054;2023-12-28T01:08:02;100208.13;;;7.50;100.00
48824;BME280;34640;53.590;10.054;2023-12-28T01:10:35;100217.69;;;7.51;100.00
48824;BME280;34640;53.590;10.054;2023-12-28T01:13:08;100215.09;;;7.51;100.00
48824;BME280;34640;53.590;10.054;2023-12-28T01:15:42;100211.09;;;7.56;100.00
48824;BME280;34640;53.590;10.054;2023-12-28T01:18:20;100216.47;;;7.59;100.00
48824;BME280;34640;53.590;10.054;2023-12-28T01:20:53;100225.34;;;7.62;100.00
48824;BME280;34640;53.590;10.054;2023-12-28T01:23:26;100229.03;;;7.66;100.00
48824;BME280;34640;53.590;10.054;2023-12-28T01:26:01;100237.06;;;7.71;100.00
48824;BME280;34640;53.590;10.054;2023-12-28T01:28:35;100228.59;;;7.73;100.00
48824;BME280;34640;53.590;10.054;2023-12-28T01:31:09;100226.91;;;7.74;100.00
48824;BME280;34640;53.590;10.054;2023-12-28T01:33:44;100243.53;;;7.77;100.00
48824;BME280;34640;53.590;10.054;2023-12-28T01:36:17;100236.25;;;7.85;100.00
48824;BME280;34640;53.590;10.054;2023-12-28T01:38:51;100227.56;;;7.84;100.00
48824;BME280;34640;53.590;10.054;2023-12-28T01:41:24;100231.34;;;7.89;100.00
48824;BME280;34640;53.590;10.054;2023-12-28T01:43:59;100243.16;;;7.99;100.00
48824;BME280;34640;53.590;10.054;2023-12-28T01:46:32;100240.97;;;8.05;100.00
48824;BME280;34640;53.590;10.054;2023-12-28T01:49:07;100241.31;;;8.11;100.00
48824;BME280;34640;53.590;10.054;2023-12-28T01:51:40;100247.59;;;8.15;100.00
48824;BME280;34640;53.590;10.054;2023-12-28T01:54:14;100247.94;;;8.21;100.00
48824;BME280;34640;53.590;10.054;2023-12-28T01:56:49;100238.69;;;8.24;100.00
48824;BME280;34640;53.590;10.054;2023-12-28T01:59:22;100250.72;;;8.24;100.00
48824;BME280;34640;53.590;10.054;2023-12-28T02:01:55;100250.72;;;8.24;100.00
48824;BME280;34640;53.590;10.054;2023-12-28T02:04:30;100235.38;;;8.27;100.00
48824;BME280;34640;53.590;10.054;2023-12-28T02:07:04;100231.16;;;8.29;100.00
48824;BME280;34640;53.590;10.054;2023-12-28T02:09:38;100240.66;;;8.28;100.00
48824;BME280;34640;53.590;10.054;2023-12-28T02:12:11;100239.66;;;8.26;100.00
48824;BME280;34640;53.590;10.054;2023-12-28T02:14:45;100237.25;;;8.30;100.00
48824;BME280;34640;53.590;10.054;2023-12-28T02:17:22;100249.84;;;8.51;100.00
48824;BME280;34640;53.590;10.054;2023-12-28T02:19:58;100243.03;;;8.53;100.00
48824;BME280;34640;53.590;10.054;2023-12-28T02:22:32;100252.69;;;8.56;100.00
48824;BME280;34640;53.590;10.054;2023-12-28T02:25:08;100256.19;;;8.56;100.00
48824;BME280;34640;53.590;10.054;2023-12-28T02:27:44;100258.25;;;8.62;100.00
48824;BME280;34640;53.590;10.054;2023-12-28T02:30:21;100261.47;;;8.58;100.00
48824;BME280;34640;53.590;10.054;2023-12-28T02:33:08;100254.56;;;8.58;100.00
48824;BME280;34640;53.590;10.054;2023-12-28T02:35:48;100262.63;;;8.63;100.00
48824;BME280;34640;53.590;10.054;2023-12-28T02:38:25;100262.38;;;8.58;100.00
48824;BME280;34640;53.590;10.054;2023-12-28T02:41:02;100255.94;;;8.52;100.00
48824;BME280;34640;53.590;10.054;2023-12-28T02:43:36;100249.22;;;8.55;100.00
48824;BME280;34640;53.590;10.054;2023-12-28T02:46:09;100243.22;;;8.56;100.00
48824;BME280;34640;53.590;10.054;2023-12-28T02:48:42;100239.72;;;8.56;100.00
48824;BME280;34640;53.590;10.054;2023-12-28T02:51:15;100241.44;;;8.55;100.00
48824;BME280;34640;53.590;10.054;2023-12-28T02:53:49;100242.41;;;8.57;100.00
48824;BME280;34640;53.590;10.054;2023-12-28T02:56:23;100243.84;;;8.52;100.00
48824;BME280;34640;53.590;10.054;2023-12-28T02:58:56;100254.41;;;8.55;100.00
48824;BME280;34640;53.590;10.054;2023-12-28T03:01:29;100246.44;;;8.52;100.00
48824;BME280;34640;53.590;10.054;2023-12-28T03:04:02;100249.22;;;8.55;100.00
48824;BME280;34640;53.590;10.054;2023-12-28T03:06:35;100251.09;;;8.58;100.00
48824;BME280;34640;53.590;10.054;2023-12-28T03:09:10;100257.97;;;8.57;100.00
48824;BME280;34640;53.590;10.054;2023-12-28T03:11:44;100258.69;;;8.55;100.00
48824;BME280;34640;53.590;10.054;2023-12-28T03:14:18;100259.78;;;8.58;100.00
48824;BME280;34640;53.590;10.054;2023-12-28T03:16:52;100256.53;;;8.63;100.00
48824;BME280;34640;53.590;10.054;2023-12-28T03:19:25;100258.16;;;8.61;100.00
48824;BME280;34640;53.590;10.054;2023-12-28T03:21:58;100256.19;;;8.56;100.00
48824;BME280;34640;53.590;10.054;2023-12-28T03:24:31;100246.78;;;8.58;100.00
48824;BME280;34640;53.590;10.054;2023-12-28T03:27:06;100265.69;;;8.56;100.00
48824;BME280;34640;53.590;10.054;2023-12-28T03:29:40;100257.44;;;8.48;100.00
48824;BME280;34640;53.590;10.054;2023-12-28T03:32:14;100259.41;;;8.52;100.00
48824;BME280;34640;53.590;10.054;2023-12-28T03:34:47;100266.84;;;8.61;100.00
48824;BME280;34640;53.590;10.054;2023-12-28T03:37:20;100260.66;;;8.59;100.00
48824;BME280;34640;53.590;10.054;2023-12-28T03:39:54;100251.81;;;8.55;100.00
48824;BME280;34640;53.590;10.054;2023-12-28T03:42:28;100264.16;;;8.60;100.00
48824;BME280;34640;53.590;10.054;2023-12-28T03:45:01;100260.56;;;8.57;100.00
48824;BME280;34640;53.590;10.054;2023-12-28T03:47:34;100265.13;;;8.62;100.00
48824;BME280;34640;53.590;10.054;2023-12-28T03:50:08;100260.47;;;8.56;100.00
48824;BME280;34640;53.590;10.054;2023-12-28T03:52:41;100273.28;;;8.53;100.00
48824;BME280;34640;53.590;10.054;2023-12-28T03:55:14;100273.56;;;8.57;100.00
48824;BME280;34640;53.590;10.054;2023-12-28T03:57:49;100268.09;;;8.53;100.00
48824;BME280;34640;53.590;10.054;2023-12-28T04:00:23;100276.94;;;8.56;100.00
48824;BME280;34640;53.590;10.054;2023-12-28T04:02:56;100277.75;;;8.55;100.00
48824;BME280;34640;53.590;10.054;2023-12-28T04:05:31;100262.19;;;8.55;100.00
48824;BME280;34640;53.590;10.054;2023-12-28T04:08:05;100264.06;;;8.58;100.00
48824;BME280;34640;53.590;10.054;2023-12-28T04:10:39;100263.00;;;8.54;100.00
48824;BME280;34640;53.590;10.054;2023-12-28T04:13:13;100255.38;;;8.57;100.00
48824;BME280;34640;53.590;10.054;2023-12-28T04:15:47;100256.09;;;8.55;100.00
48824;BME280;34640;53.590;10.054;2023-12-28T04:18:20;100255.94;;;8.52;100.00
48824;BME280;34640;53.590;10.054;2023-12-28T04:20:53;100266.47;;;8.55;100.00
48824;BME280;34640;53.590;10.054;2023-12-28T04:23:26;100264.69;;;8.54;100.00
48824;BME280;34640;53.590;10.054;2023-12-28T04:25:59;100255.28;;;8.56;100.00
48824;BME280;34640;53.590;10.054;2023-12-28T04:28:34;100263.16;;;8.57;100.00
48824;BME280;34640;53.590;10.054;2023-12-28T04:31:07;100257.72;;;8.53;100.00
48824;BME280;34640;53.590;10.054;2023-12-28T04:33:40;100260.75;;;8.61;100.00
48824;BME280;34640;53.590;10.054;2023-12-28T04:36:16;100253.22;;;8.65;100.00
48824;BME280;34640;53.590;10.054;2023-12-28T04:38:49;100261.81;;;8.64;100.00
48824;BME280;34640;53.590;10.054;2023-12-28T04:41:22;100246.97;;;8.62;100.00
48824;BME280;34640;53.590;10.054;2023-12-28T04:43:57;100241.88;;;8.63;100.00
48824;BME280;34640;53.590;10.054;2023-12-28T04:46:30;100244.09;;;8.57;100.00
48824;BME280;34640;53.590;10.054;2023-12-28T04:49:03;100236.25;;;8.55;100.00
48824;BME280;34640;53.590;10.054;2023-12-28T04:51:41;100238.03;;;8.56;100.00
48824;BME280;34640;53.590;10.054;2023-12-28T04:54:15;100244.03;;;8.55;100.00
48824;BME280;34640;53.590;10.054;2023-12-28T04:56:49;100244.19;;;8.58;100.00
48824;BME280;34640;53.590;10.054;2023-12-28T04:59:23;100252.78;;;8.57;100.00
48824;BME280;34640;53.590;10.054;2023-12-28T05:01:56;100267.28;;;8.54;100.00
48824;BME280;34640;53.590;10.054;2023-12-28T05:04:29;100271.13;;;8.61;100.00
48824;BME280;34640;53.590;10.054;2023-12-28T05:07:03;100274.63;;;8.61;100.00
48824;BME280;34640;53.590;10.054;2023-12-28T05:09:36;100267.00;;;8.64;100.00
48824;BME280;34640;53.590;10.054;2023-12-28T05:12:09;100255.47;;;8.59;100.00
48824;BME280;34640;53.590;10.054;2023-12-28T05:14:44;100284.81;;;8.58;100.00
48824;BME280;34640;53.590;10.054;2023-12-28T05:17:18;100257.81;;;8.54;100.00
48824;BME280;34640;53.590;10.054;2023-12-28T05:19:51;100271.13;;;8.61;100.00
48824;BME280;34640;53.590;10.054;2023-12-28T05:22:25;100271.31;;;8.64;100.00
48824;BME280;34640;53.590;10.054;2023-12-28T05:25:00;100265.94;;;8.61;100.00
48824;BME280;34640;53.590;10.054;2023-12-28T05:27:33;100267.72;;;8.62;100.00
48824;BME280;34640;53.590;10.054;2023-12-28T05:30:08;100254.84;;;8.63;100.00
48824;BME280;34640;53.590;10.054;2023-12-28T05:32:43;100258.72;;;8.70;100.00
48824;BME280;34640;53.590;10.054;2023-12-28T05:35:16;100274.00;;;8.65;100.00
48824;BME280;34640;53.590;10.054;2023-12-28T05:37:49;100285.09;;;8.63;100.00
48824;BME280;34640;53.590;10.054;2023-12-28T05:40:23;100279.41;;;8.68;100.00
48824;BME280;34640;53.590;10.054;2023-12-28T05:42:57;100281.88;;;8.67;100.00
48824;BME280;34640;53.590;10.054;2023-12-28T05:45:31;100270.09;;;8.72;100.00
48824;BME280;34640;53.590;10.054;2023-12-28T05:48:04;100275.81;;;8.81;100.00
48824;BME280;34640;53.590;10.054;2023-12-28T05:50:39;100259.59;;;8.85;100.00
48824;BME280;34640;53.590;10.054;2023-12-28T05:53:12;100267.03;;;8.94;100.00
48824;BME280;34640;53.590;10.054;2023-12-28T05:55:46;100260.94;;;8.93;100.00
48824;BME280;34640;53.590;10.054;2023-12-28T05:58:19;100268.66;;;8.92;100.00
48824;BME280;34640;53.590;10.054;2023-12-28T06:00:53;100278.06;;;8.90;100.00
48824;BME280;34640;53.590;10.054;2023-12-28T06:03:26;100267.56;;;8.88;100.00
48824;BME280;34640;53.590;10.054;2023-12-28T06:06:00;100282.22;;;8.87;100.00
48824;BME280;34640;53.590;10.054;2023-12-28T06:08:33;100276.63;;;8.95;100.00
48824;BME280;34640;53.590;10.054;2023-12-28T06:11:06;100279.72;;;9.04;100.00
48824;BME280;34640;53.590;10.054;2023-12-28T06:13:39;100274.88;;;9.10;100.00
48824;BME280;34640;53.590;10.054;2023-12-28T06:16:14;100274.38;;;9.15;100.00
48824;BME280;34640;53.590;10.054;2023-12-28T06:18:47;100272.19;;;9.23;100.00
48824;BME280;34640;53.590;10.054;2023-12-28T06:21:20;100267.63;;;9.34;100.00
48824;BME280;34640;53.590;10.054;2023-12-28T06:23:54;100257.41;;;9.37;100.00
48824;BME280;34640;53.590;10.054;2023-12-28T06:26:27;100244.81;;;9.44;100.00
48824;BME280;34640;53.590;10.054;2023-12-28T06:29:00;100257.09;;;9.47;100.00
48824;BME280;34640;53.590;10.054;2023-12-28T06:31:34;100250.34;;;9.50;100.00
48824;BME280;34640;53.590;10.054;2023-12-28T06:34:08;100237.44;;;9.52;100.00
48824;BME280;34640;53.590;10.054;2023-12-28T06:36:42;100253.47;;;9.60;100.00
48824;BME280;34640;53.590;10.054;2023-12-28T06:39:16;100241.28;;;9.59;100.00
48824;BME280;34640;53.590;10.054;2023-12-28T06:41:49;100241.78;;;9.68;100.00
48824;BME280;34640;53.590;10.054;2023-12-28T06:44:22;100246.91;;;9.66;100.00
48824;BME280;34640;53.590;10.054;2023-12-28T06:46:57;100248.84;;;9.70;100.00
48824;BME280;34640;53.590;10.054;2023-12-28T06:49:30;100241.84;;;9.69;100.00
48824;BME280;34640;53.590;10.054;2023-12-28T06:52:03;100249.91;;;9.74;100.00
48824;BME280;34640;53.590;10.054;2023-12-28T06:54:39;100249.97;;;9.75;100.00
48824;BME280;34640;53.590;10.054;2023-12-28T06:57:15;100251.22;;;9.82;100.00
48824;BME280;34640;53.590;10.054;2023-12-28T06:59:48;100249.69;;;9.86;100.00
48824;BME280;34640;53.590;10.054;2023-12-28T07:02:23;100232.63;;;9.91;100.00
48824;BME280;34640;53.590;10.054;2023-12-28T07:04:56;100235.94;;;9.88;100.00
48824;BME280;34640;53.590;10.054;2023-12-28T07:07:30;100233.34;;;9.88;100.00
48824;BME280;34640;53.590;10.054;2023-12-28T07:10:04;100232.69;;;9.92;100.00
48824;BME280;34640;53.590;10.054;2023-12-28T07:12:38;100231.66;;;9.89;100.00
48824;BME280;34640;53.590;10.054;2023-12-28T07:15:12;100237.09;;;9.77;100.00
48824;BME280;34640;53.590;10.054;2023-12-28T07:17:48;100218.00;;;9.76;100.00
48824;BME280;34640;53.590;10.054;2023-12-28T07:20:21;100208.28;;;9.74;100.00
48824;BME280;34640;53.590;10.054;2023-12-28T07:22:54;100198.66;;;9.88;100.00
48824;BME280;34640;53.590;10.054;2023-12-28T07:25:27;100199.84;;;9.94;100.00
48824;BME280;34640;53.590;10.054;2023-12-28T07:28:00;100214.50;;;9.92;100.00
48824;BME280;34640;53.590;10.054;2023-12-28T07:30:33;100240.84;;;9.98;100.00
48824;BME280;34640;53.590;10.054;2023-12-28T07:33:08;100254.00;;;10.01;100.00
48824;BME280;34640;53.590;10.054;2023-12-28T07:35:41;100251.25;;;9.98;100.00
48824;BME280;34640;53.590;10.054;2023-12-28T07:38:15;100245.47;;;10.04;100.00
48824;BME280;34640;53.590;10.054;2023-12-28T07:40:48;100250.09;;;10.09;100.00
48824;BME280;34640;53.590;10.054;2023-12-28T07:43:22;100237.59;;;10.02;100.00
48824;BME280;34640;53.590;10.054;2023-12-28T07:45:55;100237.91;;;10.08;100.00
48824;BME280;34640;53.590;10.054;2023-12-28T07:48:30;100242.72;;;10.01;100.00
48824;BME280;34640;53.590;10.054;2023-12-28T07:51:04;100243.44;;;9.98;100.00
48824;BME280;34640;53.590;10.054;2023-12-28T07:53:37;100223.25;;;9.94;100.00
48824;BME280;34640;53.590;10.054;2023-12-28T07:56:10;100230.16;;;9.94;100.00
48824;BME280;34640;53.590;10.054;2023-12-28T07:58:43;100229.03;;;9.89;100.00
48824;BME280;34640;53.590;10.054;2023-12-28T08:01:16;100240.91;;;9.84;100.00
48824;BME280;34640;53.590;10.054;2023-12-28T08:03:52;100230.75;;;9.88;100.00
48824;BME280;34640;53.590;10.054;2023-12-28T08:06:25;100232.78;;;9.94;100.00
48824;BME280;34640;53.590;10.054;2023-12-28T08:08:58;100232.94;;;9.97;100.00
48824;BME280;34640;53.590;10.054;2023-12-28T08:11:32;100235.88;;;10.03;100.00
48824;BME280;34640;53.590;10.054;2023-12-28T08:14:05;100235.16;;;10.05;100.00
48824;BME280;34640;53.590;10.054;2023-12-28T08:16:38;100235.31;;;10.08;100.00
48824;BME280;34640;53.590;10.054;2023-12-28T08:19:13;100228.63;;;10.14;100.00
48824;BME280;34640;53.590;10.054;2023-12-28T08:21:47;100225.59;;;10.21;100.00
48824;BME280;34640;53.590;10.054;2023-12-28T08:24:20;100235.50;;;10.28;100.00
48824;BME280;34640;53.590;10.054;2023-12-28T08:26:53;100228.16;;;10.37;100.00
48824;BME280;34640;53.590;10.054;2023-12-28T08:29:30;100227.69;;;10.44;100.00
48824;BME280;34640;53.590;10.054;2023-12-28T08:32:04;100221.41;;;10.40;100.00
48824;BME280;34640;53.590;10.054;2023-12-28T08:34:39;100222.31;;;10.41;100.00
48824;BME280;34640;53.590;10.054;2023-12-28T08:37:13;100237.44;;;10.48;100.00
48824;BME280;34640;53.590;10.054;2023-12-28T08:39:46;100229.84;;;10.53;100.00
48824;BME280;34640;53.590;10.054;2023-12-28T08:42:19;100224.06;;;10.58;100.00
48824;BME280;34640;53.590;10.054;2023-12-28T08:44:52;100217.78;;;10.55;100.00
48824;BME280;34640;53.590;10.054;2023-12-28T08:47:25;100211.91;;;10.59;100.00
48824;BME280;34640;53.590;10.054;2023-12-28T08:49:59;100224.06;;;10.58;100.00
48824;BME280;34640;53.590;10.054;2023-12-28T08:52:33;100229.09;;;10.55;100.00
48824;BME280;34640;53.590;10.054;2023-12-28T08:55:06;100228.22;;;10.55;100.00
48824;BME280;34640;53.590;10.054;2023-12-28T08:57:41;100230.06;;;10.57;100.00
48824;BME280;34640;53.590;10.054;2023-12-28T09:00:15;100237.22;;;10.61;100.00
48824;BME280;34640;53.590;10.054;2023-12-28T09:02:49;100247.06;;;10.67;100.00
48824;BME280;34640;53.590;10.054;2023-12-28T09:05:23;100241.72;;;10.64;100.00
48824;BME280;34640;53.590;10.054;2023-12-28T09:07:56;100247.16;;;10.68;100.00
48824;BME280;34640;53.590;10.054;2023-12-28T09:10:30;100238.53;;;10.69;100.00
48824;BME280;34640;53.590;10.054;2023-12-28T09:13:04;100231.91;;;10.76;100.00
48824;BME280;34640;53.590;10.054;2023-12-28T09:15:37;100231.00;;;10.76;100.00
48824;BME280;34640;53.590;10.054;2023-12-28T09:18:10;100244.19;;;10.79;100.00
48824;BME280;34640;53.590;10.054;2023-12-28T09:20:45;100233.69;;;10.77;100.00
48824;BME280;34640;53.590;10.054;2023-12-28T09:23:18;100249.59;;;10.83;100.00
48824;BME280;34640;53.590;10.054;2023-12-28T09:25:51;100250.63;;;10.85;100.00
48824;BME280;34640;53.590;10.054;2023-12-28T09:28:27;100240.34;;;10.88;100.00
48824;BME280;34640;53.590;10.054;2023-12-28T09:31:00;100245.78;;;10.93;100.00
48824;BME280;34640;53.590;10.054;2023-12-28T09:33:34;100250.09;;;10.92;100.00
48824;BME280;34640;53.590;10.054;2023-12-28T09:36:09;100252.09;;;10.98;100.00
48824;BME280;34640;53.590;10.054;2023-12-28T09:38:44;100245.31;;;11.01;100.00
48824;BME280;34640;53.590;10.054;2023-12-28T09:41:18;100237.66;;;11.05;100.00
48824;BME280;34640;53.590;10.054;2023-12-28T09:44:00;100254.78;;;10.99;100.00
48824;BME280;34640;53.590;10.054;2023-12-28T09:46:41;100247.72;;;10.97;100.00
48824;BME280;34640;53.590;10.054;2023-12-28T09:49:18;100251.56;;;11.05;100.00
48824;BME280;34640;53.590;10.054;2023-12-28T09:51:53;100237.00;;;11.09;100.00
48824;BME280;34640;53.590;10.054;2023-12-28T09:54:26;100226.50;;;11.07;100.00
48824;BME280;34640;53.590;10.054;2023-12-28T09:56:59;100238.78;;;11.10;100.00
48824;BME280;34640;53.590;10.054;2023-12-28T09:59:33;100249.28;;;11.11;100.00
48824;BME280;34640;53.590;10.054;2023-12-28T10:02:06;100245.94;;;11.14;100.00
48824;BME280;34640;53.590;10.054;2023-12-28T10:04:40;100236.34;;;11.13;100.00
48824;BME280;34640;53.590;10.054;2023-12-28T10:07:15;100227.84;;;11.17;100.00
48824;BME280;34640;53.590;10.054;2023-12-28T10:09:48;100229.47;;;11.15;100.00
48824;BME280;34640;53.590;10.054;2023-12-28T10:12:21;100222.84;;;11.21;100.00
48824;BME280;34640;53.590;10.054;2023-12-28T10:14:53;100249.59;;;11.17;100.00
48824;BME280;34640;53.590;10.054;2023-12-28T10:17:26;100236.34;;;11.13;100.00
48824;BME280;34640;53.590;10.054;2023-12-28T10:19:59;100230.31;;;11.14;100.00
48824;BME280;34640;53.590;10.054;2023-12-28T10:22:39;100223.31;;;11.13;100.00
48824;BME280;34640;53.590;10.054;2023-12-28T10:25:13;100229.84;;;11.22;100.00
48824;BME280;34640;53.590;10.054;2023-12-28T10:27:49;100219.41;;;11.22;100.00
48824;BME280;34640;53.590;10.054;2023-12-28T10:30:23;100217.91;;;11.27;100.00
48824;BME280;34640;53.590;10.054;2023-12-28T10:32:57;100212.81;;;11.29;100.00
48824;BME280;34640;53.590;10.054;2023-12-28T10:35:31;100216.59;;;11.36;100.00
48824;BME280;34640;53.590;10.054;2023-12-28T10:38:07;100219.63;;;11.27;100.00
48824;BME280;34640;53.590;10.054;2023-12-28T10:40:44;100231.69;;;11.25;100.00
48824;BME280;34640;53.590;10.054;2023-12-28T10:43:19;100246.31;;;11.21;100.00
48824;BME280;34640;53.590;10.054;2023-12-28T10:45:55;100252.41;;;11.22;100.00
48824;BME280;34640;53.590;10.054;2023-12-28T10:48:35;100235.19;;;11.25;100.00
48824;BME280;34640;53.590;10.054;2023-12-28T10:51:13;100252.47;;;11.23;100.00
48824;BME280;34640;53.590;10.054;2023-12-28T10:53:59;100248.97;;;11.23;100.00
48824;BME280;34640;53.590;10.054;2023-12-28T10:56:36;100250.13;;;11.28;100.00
48824;BME280;34640;53.590;10.054;2023-12-28T10:59:22;100259.56;;;11.26;100.00
48824;BME280;34640;53.590;10.054;2023-12-28T11:01:59;100242.31;;;11.28;100.00
48824;BME280;34640;53.590;10.054;2023-12-28T11:04:41;100239.44;;;11.41;100.00
48824;BME280;34640;53.590;10.054;2023-12-28T11:07:17;100236.97;;;11.44;100.00
48824;BME280;34640;53.590;10.054;2023-12-28T11:09:53;100228.72;;;11.53;100.00
48824;BME280;34640;53.590;10.054;2023-12-28T11:12:28;100244.13;;;11.48;100.00
48824;BME280;34640;53.590;10.054;2023-12-28T11:15:04;100228.19;;;11.42;100.00
48824;BME280;34640;53.590;10.054;2023-12-28T11:17:41;100232.66;;;11.45;100.00
48824;BME280;34640;53.590;10.054;2023-12-28T11:20:16;100236.22;;;11.47;100.00
48824;BME280;34640;53.590;10.054;2023-12-28T11:22:50;100230.13;;;11.46;100.00
48824;BME280;34640;53.590;10.054;2023-12-28T11:25:30;100227.16;;;11.39;100.00
48824;BME280;34640;53.590;10.054;2023-12-28T11:28:09;100244.59;;;11.40;100.00
48824;BME280;34640;53.590;10.054;2023-12-28T11:30:42;100228.88;;;11.38;100.00
48824;BME280;34640;53.590;10.054;2023-12-28T11:33:15;100252.34;;;11.38;100.00
48824;BME280;34640;53.590;10.054;2023-12-28T11:35:52;100241.78;;;11.35;100.00
48824;BME280;34640;53.590;10.054;2023-12-28T11:38:25;100232.22;;;11.36;100.00
48824;BME280;34640;53.590;10.054;2023-12-28T11:41:03;100246.97;;;11.35;100.00
48824;BME280;34640;53.590;10.054;2023-12-28T11:43:37;100237.66;;;11.40;100.00
48824;BME280;34640;53.590;10.054;2023-12-28T11:46:10;100244.38;;;11.35;100.00
48824;BME280;34640;53.590;10.054;2023-12-28T11:48:43;100251.97;;;11.30;100.00
48824;BME280;34640;53.590;10.054;2023-12-28T11:51:17;100243.91;;;11.26;100.00
48824;BME280;34640;53.590;10.054;2023-12-28T11:53:50;100253.44;;;11.25;100.00
48824;BME280;34640;53.590;10.054;2023-12-28T11:56:27;100239.53;;;11.25;100.00
48824;BME280;34640;53.590;10.054;2023-12-28T11:59:00;100252.06;;;11.32;100.00
48824;BME280;34640;53.590;10.054;2023-12-28T12:01:34;100245.94;;;11.31;100.00
48824;BME280;34640;53.590;10.054;2023-12-28T12:04:07;100237.09;;;11.28;100.00
48824;BME280;34640;53.590;10.054;2023-12-28T12:06:44;100230.94;;;11.27;100.00
48824;BME280;34640;53.590;10.054;2023-12-28T12:09:17;100226.81;;;11.31;100.00
48824;BME280;34640;53.590;10.054;2023-12-28T12:11:56;100226.19;;;11.37;100.00
48824;BME280;34640;53.590;10.054;2023-12-28T12:14:30;100209.88;;;11.41;100.00
48824;BME280;34640;53.590;10.054;2023-12-28T12:17:03;100224.75;;;11.43;100.00
48824;BME280;34640;53.590;10.054;2023-12-28T12:19:37;100226.41;;;11.41;100.00
48824;BME280;34640;53.590;10.054;2023-12-28T12:22:10;100235.06;;;11.40;100.00
48824;BME280;34640;53.590;10.054;2023-12-28T12:24:46;100226.72;;;11.29;100.00
48824;BME280;34640;53.590;10.054;2023-12-28T12:27:22;100237.97;;;11.28;100.00
48824;BME280;34640;53.590;10.054;2023-12-28T12:29:56;100231.41;;;11.37;100.00
48824;BME280;34640;53.590;10.054;2023-12-28T12:32:29;100225.50;;;11.41;100.00
48824;BME280;34640;53.590;10.054;2023-12-28T12:35:04;100221.78;;;11.53;100.00
48824;BME280;34640;53.590;10.054;2023-12-28T12:37:38;100229.69;;;11.55;100.00
48824;BME280;34640;53.590;10.054;2023-12-28T12:40:11;100215.97;;;11.59;100.00
48824;BME280;34640;53.590;10.054;2023-12-28T12:42:55;100222.28;;;11.64;100.00
48824;BME280;34640;53.590;10.054;2023-12-28T12:45:29;100223.31;;;11.68;100.00
48824;BME280;34640;53.590;10.054;2023-12-28T12:48:03;100220.63;;;11.66;100.00
48824;BME280;34640;53.590;10.054;2023-12-28T12:50:37;100221.44;;;11.65;100.00
48824;BME280;34640;53.590;10.054;2023-12-28T12:53:10;100214.31;;;11.61;100.00
48824;BME280;34640;53.590;10.054;2023-12-28T12:55:44;100221.09;;;11.57;100.00
48824;BME280;34640;53.590;10.054;2023-12-28T12:58:20;100219.03;;;11.50;100.00
48824;BME280;34640;53.590;10.054;2023-12-28T13:00:54;100229.22;;;11.46;100.00
48824;BME280;34640;53.590;10.054;2023-12-28T13:03:28;100229.38;;;11.49;100.00
48824;BME280;34640;53.590;10.054;2023-12-28T13:06:02;100239.06;;;11.51;100.00
48824;BME280;34640;53.590;10.054;2023-12-28T13:08:36;100232.06;;;11.50;100.00
48824;BME280;34640;53.590;10.054;2023-12-28T13:11:09;100233.78;;;11.50;100.00